createdAt,value
2019-04-03T00:02:07.213Z,100237.60
2019-04-03T00:07:11.383Z,100236.91
2019-04-03T00:12:15.426Z,100238.09
2019-04-03T00:17:19.547Z,100243.27
2019-04-03T00:22:23.594Z,100238.09
2019-04-03T00:27:27.657Z,100229.27
2019-04-03T00:32:31.675Z,100234.44
2019-04-03T00:37:35.782Z,100230.44
2019-04-03T00:42:39.847Z,100223.09
2019-04-03T00:47:43.944Z,100229.11
2019-04-03T00:52:47.988Z,100218.45
2019-04-03T00:57:54.785Z,100221.32
2019-04-03T01:02:59.569Z,100224.82
2019-04-03T01:08:03.669Z,100223.14
2019-04-03T01:13:07.734Z,100213.64
2019-04-03T01:18:12.680Z,100207.00
2019-04-03T01:23:16.748Z,100202.50
2019-04-03T01:28:20.759Z,100191.30
2019-04-03T01:33:24.823Z,100180.31
2019-04-03T01:38:28.922Z,100182.00
2019-04-03T01:43:33.246Z,100166.67
2019-04-03T01:48:37.292Z,100149.84
2019-04-03T01:53:41.347Z,100145.34
2019-04-03T01:58:45.973Z,100149.34
2019-04-03T02:03:50.029Z,100160.03
2019-04-03T02:08:54.092Z,100168.49
2019-04-03T02:13:58.193Z,100160.50
2019-04-03T02:19:02.243Z,100154.67
2019-04-03T02:24:06.566Z,100159.36
2019-04-03T02:29:10.653Z,100161.18
2019-04-03T02:34:14.700Z,100118.72
2019-04-03T02:39:18.792Z,100127.87
2019-04-03T02:44:22.800Z,100133.38
2019-04-03T02:49:26.905Z,100135.04
2019-04-03T02:54:35.807Z,100138.50
2019-04-03T02:59:38.582Z,100141.12
2019-04-03T03:04:42.905Z,100140.94
2019-04-03T03:09:47.778Z,100145.28
2019-04-03T03:14:52.999Z,100136.59
2019-04-03T03:19:59.668Z,100141.53
2019-04-03T03:25:04.237Z,100119.42
2019-04-03T03:30:30.317Z,100133.50
2019-04-03T03:35:20.080Z,100122.42
2019-04-03T03:40:21.151Z,100117.98
2019-04-03T03:45:27.526Z,100122.94
2019-04-03T03:50:35.869Z,100138.81
2019-04-03T03:55:40.838Z,100134.29
2019-04-03T04:00:45.984Z,100142.05
2019-04-03T04:05:53.893Z,100147.73
2019-04-03T04:10:59.509Z,100140.28
2019-04-03T04:16:04.370Z,100135.86
2019-04-03T04:21:11.603Z,100130.35
2019-04-03T04:26:15.428Z,100129.86
2019-04-03T04:31:19.460Z,100129.98
2019-04-03T04:36:24.306Z,100130.95
2019-04-03T04:41:28.998Z,100129.95
2019-04-03T04:46:33.315Z,100131.44
2019-04-03T04:51:37.345Z,100117.23
2019-04-03T04:56:41.445Z,100114.88
2019-04-03T05:01:48.456Z,100120.19
2019-04-03T05:06:51.415Z,100118.75
2019-04-03T05:11:55.960Z,100120.14
2019-04-03T05:17:00.055Z,100114.18
2019-04-03T05:22:04.106Z,100116.52
2019-04-03T05:27:08.438Z,100108.03
2019-04-03T05:32:12.814Z,100099.24
2019-04-03T05:37:20.016Z,100099.58
2019-04-03T05:42:23.730Z,100108.72
2019-04-03T05:47:27.799Z,100119.50
2019-04-03T05:52:33.168Z,100118.09
2019-04-03T05:57:37.543Z,100111.53
2019-04-03T06:02:41.826Z,100108.40
2019-04-03T06:07:48.475Z,100108.08
2019-04-03T06:12:51.882Z,100096.22
2019-04-03T06:17:55.972Z,100105.14
2019-04-03T06:22:59.983Z,100108.30
2019-04-03T06:28:04.009Z,100102.48
2019-04-03T06:33:08.581Z,100105.02
2019-04-03T06:38:12.695Z,100100.66
2019-04-03T06:43:17.884Z,100102.56
2019-04-03T06:48:22.897Z,100102.59
2019-04-03T06:53:28.349Z,100099.88
2019-04-03T06:58:38.930Z,100105.04
2019-04-03T07:03:39.123Z,100097.67
2019-04-03T07:08:43.203Z,100096.97
2019-04-03T07:13:47.546Z,100098.78
2019-04-03T07:18:51.639Z,100090.03
2019-04-03T07:23:55.964Z,100087.83
2019-04-03T07:28:59.975Z,100091.69
2019-04-03T07:34:04.042Z,100095.72
2019-04-03T07:39:10.593Z,100086.66
2019-04-03T07:44:14.277Z,100084.28
2019-04-03T07:49:18.425Z,100092.89
2019-04-03T07:54:23.060Z,100088.00
2019-04-03T07:59:28.279Z,100088.55
2019-04-03T08:04:32.336Z,100087.97
2019-04-03T08:09:36.408Z,100082.02
2019-04-03T08:14:41.201Z,100074.64
2019-04-03T08:19:46.408Z,100071.47
2019-04-03T08:24:53.056Z,100070.65
2019-04-03T08:29:56.218Z,100068.88
2019-04-03T08:35:03.730Z,100059.45
2019-04-03T08:40:07.005Z,100067.05
2019-04-03T08:45:11.522Z,100068.23
2019-04-03T08:50:15.601Z,100067.37
2019-04-03T08:55:19.657Z,100069.60
2019-04-03T09:00:23.984Z,100068.91
2019-04-03T09:05:28.448Z,100057.45
2019-04-03T09:10:36.345Z,100064.31
2019-04-03T09:15:38.475Z,100054.71
2019-04-03T09:20:43.700Z,100041.98
2019-04-03T09:25:48.211Z,100039.16
2019-04-03T09:30:53.996Z,100031.66
2019-04-03T09:35:59.453Z,100027.66
2019-04-03T09:41:04.042Z,100025.17
2019-04-03T09:46:08.101Z,100019.96
2019-04-03T09:51:12.155Z,100017.02
2019-04-03T09:56:16.494Z,100009.24
2019-04-03T10:01:20.580Z,100001.05
2019-04-03T10:06:24.671Z,100005.82
2019-04-03T10:11:29.047Z,99994.11
2019-04-03T10:16:35.202Z,99996.16
2019-04-03T10:21:38.841Z,99985.75
2019-04-03T10:26:42.831Z,99989.12
2019-04-03T10:31:46.875Z,99980.02
2019-04-03T10:36:50.958Z,99966.08
2019-04-03T10:41:55.090Z,99952.32
2019-04-03T10:46:59.192Z,99961.42
2019-04-03T10:52:03.461Z,99945.73
2019-04-03T10:57:07.801Z,99941.84
2019-04-03T11:02:12.345Z,99929.55
2019-04-03T11:07:16.574Z,99936.34
2019-04-03T11:12:21.326Z,99939.49
2019-04-03T11:17:26.081Z,99920.58
2019-04-03T11:22:39.727Z,99898.43
2019-04-03T11:27:45.013Z,99901.05
2019-04-03T11:32:42.162Z,99887.13
2019-04-03T11:37:46.369Z,99881.80
2019-04-03T11:42:50.368Z,99880.98
2019-04-03T11:47:54.563Z,99878.59
2019-04-03T11:53:01.486Z,99867.89
2019-04-03T11:58:04.685Z,99888.78
2019-04-03T12:03:10.812Z,99880.29
2019-04-03T12:08:14.411Z,99882.48
2019-04-03T12:13:20.953Z,99875.28
2019-04-03T12:18:24.253Z,99867.64
2019-04-03T12:23:28.312Z,99865.55
2019-04-03T12:28:32.594Z,99857.30
2019-04-03T12:33:36.682Z,99858.53
2019-04-03T12:38:40.880Z,99854.88
2019-04-03T12:43:45.132Z,99857.02
2019-04-03T12:48:50.954Z,99852.01
2019-04-03T12:53:54.902Z,99850.89
2019-04-03T12:58:59.205Z,99855.28
2019-04-03T13:04:03.598Z,99854.98
2019-04-03T13:09:09.764Z,99854.32
2019-04-03T13:14:24.158Z,99850.95
2019-04-03T13:19:20.361Z,99849.92
2019-04-03T13:24:24.718Z,99857.66
2019-04-03T13:29:28.718Z,99851.15
2019-04-03T13:34:33.119Z,99845.62
2019-04-03T13:39:37.174Z,99844.80
2019-04-03T13:44:41.898Z,99828.94
2019-04-03T13:49:49.348Z,99817.62
2019-04-03T13:54:52.320Z,99811.39
2019-04-03T14:00:01.087Z,99805.00
2019-04-03T14:05:02.065Z,99793.91
2019-04-03T14:10:06.753Z,99789.92
2019-04-03T14:15:11.174Z,99779.83
2019-04-03T14:20:15.466Z,99785.44
2019-04-03T14:25:22.505Z,99769.02
2019-04-03T14:30:25.798Z,99775.52
2019-04-03T14:35:51.876Z,99769.30
2019-04-03T14:40:36.080Z,99773.13
2019-04-03T14:45:40.577Z,99774.63
2019-04-03T14:50:44.607Z,99758.97
2019-04-03T14:55:50.063Z,99740.34
2019-04-03T15:00:54.527Z,99749.78
2019-04-03T15:05:59.144Z,99752.22
2019-04-03T15:11:03.806Z,99748.43
2019-04-03T15:16:07.914Z,99738.84
2019-04-03T15:21:12.301Z,99733.87
2019-04-03T15:26:16.378Z,99731.42
2019-04-03T15:31:23.195Z,99726.47
2019-04-03T15:36:26.342Z,99729.22
2019-04-03T15:41:33.057Z,99719.58
2019-04-03T15:46:36.195Z,99713.56
2019-04-03T15:51:40.521Z,99708.40
2019-04-03T15:56:45.842Z,99707.26
2019-04-03T16:01:50.663Z,99691.90
2019-04-03T16:06:54.699Z,99682.72
2019-04-03T16:12:00.460Z,99686.19
2019-04-03T16:17:04.514Z,99685.07
2019-04-03T16:22:08.615Z,99677.70
2019-04-03T16:27:13.107Z,99669.25
2019-04-03T16:32:17.221Z,99661.84
2019-04-03T16:37:22.711Z,99654.17
2019-04-03T16:42:27.139Z,99649.17
2019-04-03T16:47:31.742Z,99652.61
2019-04-03T16:52:39.160Z,99647.72
2019-04-03T16:57:45.109Z,99636.58
2019-04-03T17:02:49.947Z,99633.97
2019-04-03T17:07:55.167Z,99635.68
2019-04-03T17:13:00.093Z,99633.39
2019-04-03T17:18:04.583Z,99627.86
2019-04-03T17:23:10.950Z,99625.77
2019-04-03T17:28:15.319Z,99622.83
2019-04-03T17:33:19.756Z,99626.73
2019-04-03T17:38:24.305Z,99624.31
2019-04-03T17:43:28.722Z,99623.97
2019-04-03T17:48:33.132Z,99620.62
2019-04-03T17:53:37.421Z,99619.02
2019-04-03T17:58:42.328Z,99612.37
2019-04-03T18:03:47.852Z,99613.71
2019-04-03T18:08:53.079Z,99621.84
2019-04-03T18:13:57.762Z,99617.27
2019-04-03T18:19:04.576Z,99616.67
2019-04-03T18:24:08.552Z,99621.71
2019-04-03T18:29:12.848Z,99617.02
2019-04-03T18:34:19.829Z,99612.28
2019-04-03T18:39:26.612Z,99610.27
2019-04-03T18:44:33.862Z,99605.77
2019-04-03T18:49:40.859Z,99603.28
2019-04-03T18:54:46.805Z,99598.88
2019-04-03T18:59:56.206Z,99597.02
2019-04-03T19:05:02.422Z,99600.13
2019-04-03T19:10:08.169Z,99597.96
2019-04-03T19:15:13.141Z,99585.31
2019-04-03T19:20:18.112Z,99582.12
2019-04-03T19:25:22.470Z,99586.06
2019-04-03T19:30:29.907Z,99578.99
2019-04-03T19:35:36.075Z,99579.95
2019-04-03T19:40:42.915Z,99571.50
2019-04-03T19:45:51.824Z,99566.47
2019-04-03T19:50:58.903Z,99562.02
2019-04-03T19:56:03.880Z,99549.36
2019-04-03T20:01:09.664Z,99554.78
2019-04-03T20:06:18.232Z,99559.81
2019-04-03T20:11:25.205Z,99554.41
2019-04-03T20:16:30.189Z,99555.30
2019-04-03T20:21:35.933Z,99553.58
2019-04-03T20:26:40.432Z,99558.54
2019-04-03T20:31:44.688Z,99551.67
2019-04-03T20:36:51.770Z,99570.27
2019-04-03T20:41:55.538Z,99575.13
2019-04-03T20:47:00.150Z,99578.12
2019-04-03T20:52:05.886Z,99584.16
2019-04-03T20:57:10.202Z,99582.17
2019-04-03T21:02:14.826Z,99571.83
2019-04-03T21:07:19.158Z,99575.91
2019-04-03T21:12:23.318Z,99568.22
2019-04-03T21:17:27.442Z,99570.23
2019-04-03T21:22:32.049Z,99571.17
2019-04-03T21:27:36.045Z,99564.98
2019-04-03T21:32:40.088Z,99564.30
2019-04-03T21:37:44.153Z,99565.75
2019-04-03T21:42:48.186Z,99565.84
2019-04-03T21:47:52.745Z,99556.58
2019-04-03T21:52:56.775Z,99558.73
2019-04-03T21:58:00.893Z,99557.16
2019-04-03T22:03:06.790Z,99561.16
2019-04-03T22:08:10.735Z,99557.41
2019-04-03T22:13:15.079Z,99553.10
2019-04-03T22:18:19.373Z,99556.53
2019-04-03T22:23:23.458Z,99551.30
2019-04-03T22:28:27.508Z,99548.00
2019-04-03T22:33:31.852Z,99547.17
2019-04-03T22:38:37.179Z,99550.48
2019-04-03T22:43:41.629Z,99550.24
2019-04-03T22:48:45.689Z,99548.59
2019-04-03T22:53:49.774Z,99540.77
2019-04-03T22:58:53.865Z,99537.58
2019-04-03T23:03:57.899Z,99544.67
2019-04-03T23:09:01.988Z,99544.78
2019-04-03T23:14:06.823Z,99532.20
2019-04-03T23:19:11.624Z,99544.64
2019-04-03T23:24:15.719Z,99534.91
2019-04-03T23:29:19.810Z,99532.31
2019-04-03T23:34:23.902Z,99532.08
2019-04-03T23:39:28.443Z,99531.80
2019-04-03T23:44:32.446Z,99524.68
2019-04-03T23:49:36.517Z,99523.95
2019-04-03T23:54:40.682Z,99508.23
2019-04-03T23:59:44.986Z,99511.90
